KACY/ACY METAR and TAF weather

Enter ICAO airport designator
Station Type Date Time Source
KACY METAR 2023/01/30 10:54 UTC NOAA

KACY 301054Z 00000KT 10SM CLR 05/04 A3018 RMK AO2 SLP220 T00500039 $


Station Type Date Time Source
KACY Decoded METAR 2023/01/30 10:54 UTC NOAA

ATLANTIC CITY INTERNATIONAL, NJ, United States (KACY) 39-28N 74-35W 35M
Jan 30, 2023 - 05:54 AM EST / 2023.01.30 1054 UTC
Wind: Calm:0
Visibility: 10 mile(s):0
Sky conditions: clear
Temperature: 41.0 F (5.0 C)
Dew Point: 39.0 F (3.9 C)
Relative Humidity: 92%
Pressure (altimeter): 30.18 in. Hg (1022 hPa)
ob: KACY 301054Z 00000KT 10SM CLR 05/04 A3018 RMK AO2 SLP220 T00500039
cycle: 11

Station Type Date Time Source
KACY TAF 2023/01/30 12:22 UTC NOAA

TAF KACY 301120Z 3012/3112 VRB02KT P6SM OVC200
FM301700 18004KT P6SM SCT200
FM310700 27006KT P6SM BKN050
FM311000 31007KT P6SM BKN040

Example: see airport list